Time;durP1;ratioP1;P1;durP2;ratioP2;P2;SDS_P1;SDS_P2;PMS_P1;PMS_P2;Temp;Humidity;BMP_temperature;BMP_pressure;BME280_temperature;BME280_humidity;BME280_pressure;Samples;Min_cycle;Max_cycle;Signal;HPM_P1;HPM_P2
2022/09/01 00:02:17;;;;;;;14.80;8.95;;;;;;;19.50;nan;100179.34;5069008;28;20032;-68
2022/09/01 00:04:44;;;;;;;15.73;8.30;;;;;;;19.49;nan;100184.97;5064804;28;20383;-67
2022/09/01 00:07:12;;;;;;;13.90;9.52;;;;;;;19.48;nan;100175.38;5065698;28;20055;-68
2022/09/01 00:09:38;;;;;;;13.68;9.18;;;;;;;19.43;nan;100112.16;5065976;28;20048;-68
2022/09/01 00:12:06;;;;;;;14.32;9.48;;;;;;;19.42;nan;100192.53;5064197;28;20029;-68
2022/09/01 00:14:36;;;;;;;11.82;8.65;;;;;;;19.39;nan;100182.44;5059242;28;20075;-68
2022/09/01 00:17:05;;;;;;;16.75;9.30;;;;;;;19.33;nan;100249.28;5046681;28;20032;-69
2022/09/01 00:19:32;;;;;;;12.80;8.88;;;;;;;19.29;nan;100194.06;5062287;28;20482;-69
2022/09/01 00:21:58;;;;;;;13.68;8.50;;;;;;;19.29;nan;100188.72;5065956;28;20474;-69
2022/09/01 00:24:25;;;;;;;13.18;8.05;;;;;;;19.27;nan;100185.53;5044529;28;20475;-68
2022/09/01 00:26:51;;;;;;;13.68;8.07;;;;;;;19.26;nan;100147.38;5050840;28;20046;-69
2022/09/01 00:29:17;;;;;;;10.95;8.25;;;;;;;19.24;nan;100138.06;5062329;28;20066;-69
2022/09/01 00:31:43;;;;;;;12.45;8.38;;;;;;;19.26;nan;100182.09;5049211;28;20016;-69
2022/09/01 00:34:08;;;;;;;13.18;7.90;;;;;;;19.29;nan;100159.34;5066510;28;20029;-69
2022/09/01 00:36:34;;;;;;;16.73;8.45;;;;;;;19.30;nan;100185.00;5068866;28;20062;-69
2022/09/01 00:38:59;;;;;;;12.18;7.47;;;;;;;19.30;nan;100145.72;5067342;28;20043;-69
2022/09/01 00:41:27;;;;;;;10.32;7.05;;;;;;;;;;5068329;28;20103;-69
2022/09/01 00:43:55;;;;;;;10.57;7.10;;;;;;;19.32;nan;100178.28;5049593;28;20474;-68
2022/09/01 00:46:31;;;;;;;13.97;7.77;;;;;;;19.31;nan;100182.00;5065453;28;20043;-69
2022/09/01 00:49:17;;;;;;;12.55;7.43;;;;;;;19.36;nan;100185.69;5065602;28;20021;-68
2022/09/01 00:51:47;;;;;;;11.52;7.35;;;;;;;19.28;nan;100182.59;5062734;28;20025;-68
2022/09/01 00:54:14;;;;;;;12.05;7.78;;;;;;;;;;5047902;28;20687;-68
2022/09/01 00:56:41;;;;;;;11.68;7.15;;;;;;;19.22;nan;100172.28;5064581;28;20033;-68
2022/09/01 00:59:08;;;;;;;9.90;7.38;;;;;;;;;;5062982;28;20028;-69
2022/09/01 01:01:35;;;;;;;10.57;7.30;;;;;;;19.21;nan;100174.16;5047599;28;20025;-69
2022/09/01 01:04:01;;;;;;;12.30;7.70;;;;;;;;;;5064085;28;20086;-69
2022/09/01 01:06:31;;;;;;;10.27;7.75;;;;;;;19.20;nan;100148.56;5061349;28;20021;-69
2022/09/01 01:08:59;;;;;;;12.95;7.72;;;;;;;19.22;nan;100226.44;5048560;28;20016;-69
2022/09/01 01:11:28;;;;;;;12.05;7.15;;;;;;;19.19;nan;100221.69;5063302;28;20082;-69
2022/09/01 01:13:57;;;;;;;10.35;7.55;;;;;;;19.24;nan;100178.13;5064926;28;20378;-69
2022/09/01 01:16:25;;;;;;;8.70;6.78;;;;;;;19.23;nan;100157.84;5047551;28;20033;-69
2022/09/01 01:18:51;;;;;;;12.27;7.53;;;;;;;19.19;nan;100181.66;5049053;28;20028;-69
2022/09/01 01:24:18;;;;;;;12.10;7.97;;;;;;;19.11;nan;100171.63;5064647;28;20513;-69
2022/09/01 01:26:45;;;;;;;11.07;7.72;;;;;;;19.12;nan;100091.25;5060657;28;20459;-69
2022/09/01 01:29:11;;;;;;;12.88;8.10;;;;;;;19.12;nan;100147.31;5063052;28;20024;-69
2022/09/01 01:31:36;;;;;;;11.05;7.45;;;;;;;19.11;nan;100163.63;5064249;28;20020;-69
2022/09/01 01:34:05;;;;;;;11.43;7.93;;;;;;;19.09;nan;100166.56;5064996;28;20419;-69
2022/09/01 01:36:35;;;;;;;9.40;7.50;;;;;;;;;;5066486;28;20028;-69
2022/09/01 01:39:15;;;;;;;9.85;7.57;;;;;;;19.00;nan;100154.94;5067115;28;20492;-69
2022/09/01 01:41:43;;;;;;;13.68;7.63;;;;;;;;;;5053371;28;20390;-69
2022/09/01 01:44:10;;;;;;;11.38;6.95;;;;;;;19.01;nan;100150.38;5069663;28;20032;-68
2022/09/01 01:46:41;;;;;;;11.00;7.20;;;;;;;18.96;nan;100153.91;5068060;28;20123;-69
2022/09/01 01:49:08;;;;;;;8.48;7.28;;;;;;;18.95;nan;100160.34;5068586;28;20035;-68
2022/09/01 01:51:34;;;;;;;12.00;7.40;;;;;;;;;;5050969;28;20031;-68
2022/09/01 01:54:00;;;;;;;11.50;7.30;;;;;;;18.84;nan;100221.06;5062725;28;20025;-66
2022/09/01 01:56:26;;;;;;;9.85;6.38;;;;;;;18.88;nan;100160.69;5066180;28;20110;-70
2022/09/01 01:58:54;;;;;;;11.85;7.22;;;;;;;18.86;nan;100144.16;5068191;28;20112;-68
2022/09/01 02:01:23;;;;;;;9.90;6.85;;;;;;;18.84;nan;100127.69;5053828;28;20111;-67
2022/09/01 02:03:53;;;;;;;10.13;7.55;;;;;;;18.79;nan;100127.72;5064737;28;20114;-68
2022/09/01 02:06:24;;;;;;;9.88;7.47;;;;;;;18.79;nan;100149.06;5062718;28;20560;-68
2022/09/01 02:09:01;;;;;;;10.82;7.50;;;;;;;18.81;nan;100154.13;5050456;28;20021;-71
2022/09/01 02:11:27;;;;;;;9.68;7.72;;;;;;;18.82;nan;100148.50;5069261;28;20063;-71
2022/09/01 02:13:55;;;;;;;13.88;7.68;;;;;;;18.83;nan;100149.28;5067752;28;20051;-71
2022/09/01 02:16:23;;;;;;;10.37;7.33;;;;;;;18.79;nan;100122.38;5064116;28;20025;-71
2022/09/01 02:18:50;;;;;;;12.75;7.72;;;;;;;18.79;nan;100142.94;5064456;28;20317;-71
2022/09/01 02:21:20;;;;;;;11.88;7.38;;;;;;;18.78;nan;100158.16;5062672;28;20037;-71
2022/09/01 02:24:00;;;;;;;9.32;7.53;;;;;;;18.74;nan;100157.09;5063799;28;20025;-71
2022/09/01 02:26:30;;;;;;;12.43;7.55;;;;;;;18.74;nan;100167.75;5049879;28;20421;-71
2022/09/01 02:29:03;;;;;;;15.98;8.40;;;;;;;18.64;nan;100138.56;5063300;28;20017;-71
2022/09/01 02:31:30;;;;;;;10.95;7.28;;;;;;;18.75;nan;100144.53;5063386;28;20048;-71
2022/09/01 02:33:57;;;;;;;11.13;7.10;;;;;;;18.75;nan;100152.56;5064033;28;20028;-70
2022/09/01 02:36:24;;;;;;;11.77;7.18;;;;;;;18.78;nan;100146.69;5071917;28;20039;-71
2022/09/01 02:38:50;;;;;;;14.23;7.60;;;;;;;18.77;nan;100153.09;5066868;28;20021;-71
2022/09/01 02:41:19;;;;;;;10.73;7.05;;;;;;;18.75;nan;100148.03;5052055;28;20034;-71
2022/09/01 02:43:45;;;;;;;9.15;6.60;;;;;;;18.77;nan;100147.75;5067875;28;20071;-71
2022/09/01 02:46:11;;;;;;;9.88;6.90;;;;;;;18.76;nan;100159.50;5064678;28;20024;-71
2022/09/01 02:48:40;;;;;;;7.72;6.28;;;;;;;18.75;nan;100113.34;5062950;28;20044;-71
2022/09/01 02:51:13;;;;;;;11.10;7.10;;;;;;;18.67;nan;100193.97;5065071;28;20032;-71
2022/09/01 02:53:39;;;;;;;8.48;6.50;;;;;;;18.70;nan;100161.44;5064357;28;20025;-69
2022/09/01 02:56:10;;;;;;;11.93;6.43;;;;;;;18.68;nan;100144.91;5060644;28;20029;-68
2022/09/01 02:58:45;;;;;;;9.18;6.75;;;;;;;18.69;nan;100157.16;5067596;28;20715;-69
2022/09/01 03:01:20;;;;;;;10.27;7.18;;;;;;;18.66;nan;100149.72;5065452;28;20070;-68
2022/09/01 03:03:47;;;;;;;12.60;6.72;;;;;;;18.63;nan;100198.31;5067292;28;20024;-69
2022/09/01 03:06:13;;;;;;;12.40;6.32;;;;;;;18.65;nan;100212.97;5049863;28;20135;-69
2022/09/01 03:08:39;;;;;;;9.90;6.65;;;;;;;18.54;nan;100117.34;5067371;28;20073;-68
2022/09/01 03:11:10;;;;;;;10.18;6.45;;;;;;;18.65;nan;100153.47;5051412;28;20107;-68
2022/09/01 03:13:37;;;;;;;12.32;6.55;;;;;;;18.65;nan;100153.47;5065073;28;20033;-70
2022/09/01 03:16:07;;;;;;;11.73;7.28;;;;;;;18.63;nan;100150.31;5058868;28;20510;-68
2022/09/01 03:18:33;;;;;;;11.57;6.57;;;;;;;18.65;nan;100137.47;5044892;28;20029;-68
2022/09/01 03:20:58;;;;;;;12.32;7.03;;;;;;;;;;5063006;28;20531;-69
2022/09/01 03:23:24;;;;;;;9.05;6.88;;;;;;;18.61;nan;100139.13;5066034;28;20077;-68
2022/09/01 03:25:50;;;;;;;11.02;7.22;;;;;;;18.64;nan;100149.22;5043646;28;20056;-68
2022/09/01 03:28:16;;;;;;;12.18;7.18;;;;;;;18.61;nan;100121.25;5066507;28;20033;-70
2022/09/01 03:30:54;;;;;;;10.60;7.13;;;;;;;18.66;nan;100144.41;5062329;28;20021;-70
2022/09/01 03:33:20;;;;;;;12.55;7.30;;;;;;;18.67;nan;100146.75;5064445;28;20016;-69
2022/09/01 03:35:47;;;;;;;14.43;7.68;;;;;;;18.64;nan;100083.34;5067619;28;20020;-70
2022/09/01 03:38:14;;;;;;;12.38;7.70;;;;;;;;;;5064484;28;20024;-70
2022/09/01 03:40:39;;;;;;;12.43;7.32;;;;;;;18.64;nan;100110.00;5068481;28;20110;-70
2022/09/01 03:43:12;;;;;;;9.63;7.43;;;;;;;;;;5052084;28;20052;-70
2022/09/01 03:45:37;;;;;;;10.95;7.65;;;;;;;18.68;nan;100280.94;5062718;28;20020;-69
2022/09/01 03:48:08;;;;;;;11.95;8.05;;;;;;;18.67;nan;100074.75;5065934;28;20032;-69
2022/09/01 03:50:39;;;;;;;11.93;7.90;;;;;;;18.74;nan;100149.09;5063386;28;20025;-69
2022/09/01 03:53:05;;;;;;;14.88;8.15;;;;;;;18.73;nan;100120.84;5063931;28;20403;-69
2022/09/01 03:55:33;;;;;;;13.13;8.18;;;;;;;18.77;nan;100145.09;5062135;28;20104;-69
2022/09/01 03:58:05;;;;;;;11.05;8.10;;;;;;;18.77;nan;100102.41;5064340;28;20554;-70
2022/09/01 04:00:34;;;;;;;15.23;8.10;;;;;;;18.77;nan;100151.25;5042882;28;20055;-69
2022/09/01 04:03:01;;;;;;;11.98;7.90;;;;;;;18.75;nan;100129.34;5066615;28;20016;-69
2022/09/01 04:05:28;;;;;;;13.20;7.85;;;;;;;;;;5060530;28;20044;-70
2022/09/01 04:07:59;;;;;;;12.95;7.57;;;;;;;;;;5059695;28;20026;-69
2022/09/01 04:10:25;;;;;;;11.95;7.82;;;;;;;18.72;nan;100132.56;5059577;28;20437;-70
2022/09/01 04:12:51;;;;;;;14.57;7.97;;;;;;;18.75;nan;100126.69;5048303;28;20025;-70
2022/09/01 04:15:17;;;;;;;14.60;8.18;;;;;;;18.70;nan;100124.88;5065571;28;20056;-70
2022/09/01 04:20:27;;;;;;;14.30;8.27;;;;;;;18.74;nan;100121.63;5066300;28;20551;-68
2022/09/01 04:22:54;;;;;;;17.15;8.15;;;;;;;18.68;nan;100126.25;5054811;28;20029;-68
2022/09/01 04:25:22;;;;;;;17.05;8.00;;;;;;;18.75;nan;100121.34;5047986;28;20066;-67
2022/09/01 04:27:54;;;;;;;14.85;8.07;;;;;;;18.78;nan;100141.34;5068799;28;20016;-69
2022/09/01 04:30:28;;;;;;;9.98;7.82;;;;;;;18.76;nan;100149.63;5065671;28;20021;-69
2022/09/01 04:32:55;;;;;;;15.25;8.35;;;;;;;18.76;nan;100164.81;5064807;28;20029;-69
2022/09/01 04:35:26;;;;;;;15.05;8.35;;;;;;;18.83;nan;100151.97;5048535;28;20104;-70
2022/09/01 04:37:52;;;;;;;14.25;8.60;;;;;;;18.84;nan;100143.69;5057496;28;20032;-68
2022/09/01 04:40:22;;;;;;;11.85;8.15;;;;;;;;;;5060645;28;20025;-69
2022/09/01 04:42:48;;;;;;;17.38;8.27;;;;;;;18.89;nan;100129.47;5064815;28;20082;-70
2022/09/01 04:45:14;;;;;;;16.30;8.60;;;;;;;;;;5073551;28;20028;-69
2022/09/01 04:47:40;;;;;;;13.98;8.10;;;;;;;18.92;nan;100121.69;5069325;28;20024;-68
2022/09/01 04:50:12;;;;;;;13.23;8.10;;;;;;;18.89;nan;100079.59;5067721;28;20410;-67
2022/09/01 04:52:40;;;;;;;14.60;7.82;;;;;;;18.96;nan;100131.78;5071337;28;20481;-68
2022/09/01 04:55:07;;;;;;;14.75;7.95;;;;;;;18.92;nan;100064.88;5066118;28;20013;-67
2022/09/01 04:57:34;;;;;;;23.63;9.35;;;;;;;19.01;nan;100113.03;5064189;28;20036;-66
2022/09/01 05:00:00;;;;;;;12.38;8.15;;;;;;;19.04;nan;100139.16;5066243;28;20064;-68
2022/09/01 05:02:27;;;;;;;19.35;8.65;;;;;;;19.05;nan;100108.72;5069195;28;20025;-67
2022/09/01 05:04:53;;;;;;;13.93;7.80;;;;;;;19.06;nan;100123.66;5071576;28;20051;-67
2022/09/01 05:07:20;;;;;;;13.18;8.52;;;;;;;;;;5067807;28;20024;-67
2022/09/01 05:09:45;;;;;;;14.13;7.47;;;;;;;19.09;nan;100131.09;5065862;28;20028;-71
2022/09/01 05:12:11;;;;;;;13.50;7.88;;;;;;;19.09;nan;100123.06;5068118;28;20020;-70
2022/09/01 05:14:42;;;;;;;14.70;7.88;;;;;;;19.10;nan;100133.44;5065483;28;20518;-71
2022/09/01 05:17:11;;;;;;;16.23;7.75;;;;;;;19.12;nan;100119.81;5067393;28;20086;-67
2022/09/01 05:19:39;;;;;;;24.60;8.48;;;;;;;19.14;nan;100117.66;5050485;28;20048;-69
2022/09/01 05:22:09;;;;;;;22.80;8.27;;;;;;;19.15;nan;100121.13;5070720;28;20035;-67
2022/09/01 05:24:34;;;;;;;;;;;;;;;19.13;nan;100122.22;5065412;28;20478;-69
2022/09/01 05:27:00;;;;;;;15.05;8.10;;;;;;;;;;5069145;28;20011;-68
2022/09/01 05:29:26;;;;;;;22.83;8.38;;;;;;;19.18;nan;100101.84;5066720;28;20424;-67
2022/09/01 05:31:54;;;;;;;18.95;8.43;;;;;;;19.17;nan;100106.41;5048869;28;20042;-67
2022/09/01 05:34:25;;;;;;;19.48;8.95;;;;;;;19.19;nan;100101.56;5066491;28;20106;-68
2022/09/01 05:36:51;;;;;;;19.23;8.55;;;;;;;19.27;nan;100116.91;5070473;28;20023;-68
2022/09/01 05:39:17;;;;;;;15.00;8.40;;;;;;;19.25;nan;100131.63;5068361;28;20024;-69
2022/09/01 05:41:44;;;;;;;14.57;8.75;;;;;;;19.30;nan;100116.38;5069176;28;20421;-68
2022/09/01 05:44:12;;;;;;;26.70;20.20;;;;;;;19.33;nan;100142.47;5037981;28;20017;-69
2022/09/01 05:46:39;;;;;;;25.60;9.00;;;;;;;19.29;nan;100148.69;5071371;28;20020;-69
2022/09/01 05:49:08;;;;;;;16.35;7.75;;;;;;;19.30;nan;100161.75;5070327;28;20025;-69
2022/09/01 05:51:34;;;;;;;16.05;7.88;;;;;;;;;;5067357;28;20086;-69
2022/09/01 05:54:00;;;;;;;26.13;8.40;;;;;;;19.31;nan;100184.69;5064823;28;20073;-68
2022/09/01 05:56:27;;;;;;;12.02;7.38;;;;;;;19.35;nan;100139.53;5068972;28;20029;-68
2022/09/01 05:58:53;;;;;;;12.32;7.95;;;;;;;;;;5067568;28;20075;-68
2022/09/01 06:01:23;;;;;;;13.15;9.38;;;;;;;19.43;nan;100125.50;5070946;28;20027;-69
2022/09/01 06:03:54;;;;;;;11.88;8.75;;;;;;;19.47;nan;100142.53;5072548;28;20036;-70
2022/09/01 06:06:27;;;;;;;10.93;7.68;;;;;;;19.49;nan;100139.56;5064439;28;20024;-70
2022/09/01 06:08:57;;;;;;;11.90;7.07;;;;;;;19.49;nan;100139.56;5069410;28;20024;-70
2022/09/01 06:11:31;;;;;;;16.65;7.75;;;;;;;19.58;nan;100145.84;5047422;28;20107;-70
2022/09/01 06:13:57;;;;;;;13.25;7.35;;;;;;;;;;5067008;28;20367;-70
2022/09/01 06:16:23;;;;;;;16.60;6.50;;;;;;;;;;5053902;28;20059;-70
2022/09/01 06:18:52;;;;;;;11.88;6.93;;;;;;;19.57;nan;100138.91;5051101;28;20477;-69
2022/09/01 06:21:18;;;;;;;12.45;7.45;;;;;;;19.69;nan;100218.63;5054686;28;20024;-70
2022/09/01 06:23:44;;;;;;;12.27;8.48;;;;;;;19.71;nan;100153.16;5051300;28;20020;-70
2022/09/01 06:26:39;;;;;;;14.68;7.05;;;;;;;19.76;nan;100147.72;5069132;28;20031;-69
2022/09/01 06:29:08;;;;;;;11.77;7.72;;;;;;;19.84;nan;100150.81;5066439;28;20039;-69
2022/09/01 06:31:38;;;;;;;14.88;6.90;;;;;;;19.84;nan;100140.13;5068565;28;20024;-69
2022/09/01 06:34:05;;;;;;;11.18;7.72;;;;;;;19.94;nan;100145.28;5064792;28;20471;-68
2022/09/01 06:36:35;;;;;;;14.93;8.63;;;;;;;20.03;nan;100170.25;5068778;28;20056;-69
2022/09/01 06:39:01;;;;;;;21.92;8.68;;;;;;;20.09;nan;100162.97;5070418;28;20028;-69
2022/09/01 06:41:27;;;;;;;13.50;7.60;;;;;;;20.15;nan;100157.22;5065911;28;20040;-69
2022/09/01 06:43:53;;;;;;;20.55;8.30;;;;;;;20.19;nan;100142.16;5068745;28;20032;-69
2022/09/01 06:46:20;;;;;;;14.10;9.10;;;;;;;20.25;nan;100152.78;5051777;28;20036;-69
2022/09/01 06:48:47;;;;;;;12.23;7.43;;;;;;;20.26;nan;100167.75;5061243;28;20024;-68
2022/09/01 06:51:19;;;;;;;12.57;6.78;;;;;;;20.29;nan;100207.25;5063670;28;20021;-68
2022/09/01 06:53:50;;;;;;;12.10;7.03;;;;;;;20.30;nan;100136.63;5061396;28;20023;-69
2022/09/01 06:56:17;;;;;;;10.88;6.75;;;;;;;20.28;nan;100150.31;5064165;28;20031;-70
2022/09/01 06:58:47;;;;;;;9.35;6.75;;;;;;;20.29;nan;100162.59;5043266;28;20076;-70
2022/09/01 07:01:16;;;;;;;13.48;6.95;;;;;;;20.32;nan;100171.91;5067659;28;20494;-68
2022/09/01 07:03:44;;;;;;;12.93;5.32;;;;;;;20.22;nan;100164.06;5052189;28;20028;-68
2022/09/01 07:06:09;;;;;;;14.48;5.43;;;;;;;;;;5063129;28;20087;-67
2022/09/01 07:08:38;;;;;;;9.77;5.75;;;;;;;20.31;nan;100170.31;5068643;28;20098;-68
2022/09/01 07:11:07;;;;;;;11.57;5.95;;;;;;;20.34;nan;100175.06;5071089;28;20391;-69
2022/09/01 07:13:35;;;;;;;12.10;4.72;;;;;;;20.29;nan;100156.44;5066416;28;20032;-69
2022/09/01 07:16:03;;;;;;;16.35;4.82;;;;;;;20.27;nan;100177.34;5065928;28;20091;-70
2022/09/01 07:18:30;;;;;;;7.60;4.53;;;;;;;20.19;nan;100174.25;5047969;28;20036;-69
2022/09/01 07:20:55;;;;;;;9.20;4.65;;;;;;;20.21;nan;100159.78;5064945;28;20028;-70
2022/09/01 07:23:22;;;;;;;9.75;4.95;;;;;;;20.18;nan;100171.88;5067845;28;20066;-69
2022/09/01 07:25:53;;;;;;;10.27;4.28;;;;;;;20.13;nan;100167.41;5064022;28;20667;-68
2022/09/01 07:28:20;;;;;;;15.43;4.47;;;;;;;20.15;nan;100167.91;5064871;28;20028;-68
2022/09/01 07:30:50;;;;;;;11.18;4.93;;;;;;;20.07;nan;100157.13;5063400;28;20017;-69
2022/09/01 07:33:23;;;;;;;7.93;4.72;;;;;;;20.02;nan;100160.66;5063232;28;20020;-69
2022/09/01 07:35:52;;;;;;;13.50;4.88;;;;;;;19.90;nan;100146.97;5066578;28;20036;-69
2022/09/01 07:38:18;;;;;;;11.70;4.97;;;;;;;19.96;nan;100164.50;5069291;28;20024;-69
2022/09/01 07:40:45;;;;;;;8.60;4.57;;;;;;;19.95;nan;100243.88;5063391;28;20029;-68
2022/09/01 07:43:21;;;;;;;10.48;5.30;;;;;;;;;;5065139;28;20024;-70
2022/09/01 07:45:48;;;;;;;11.45;4.57;;;;;;;19.75;nan;100167.53;5051325;28;20428;-69
2022/09/01 07:48:19;;;;;;;13.55;4.75;;;;;;;19.73;nan;100177.69;5061519;28;20020;-69
2022/09/01 07:50:46;;;;;;;9.50;4.30;;;;;;;;;;5062389;28;20021;-70
2022/09/01 07:53:14;;;;;;;13.85;4.93;;;;;;;;;;5057629;28;20390;-71
2022/09/01 07:55:40;;;;;;;14.07;4.68;;;;;;;19.75;nan;100164.03;5064712;28;20024;-71
2022/09/01 07:58:05;;;;;;;14.75;5.13;;;;;;;;;;5063950;28;20028;-70
2022/09/01 08:00:32;;;;;;;11.45;5.03;;;;;;;19.76;nan;100161.06;5061811;28;20025;-70
2022/09/01 08:02:58;;;;;;;12.15;4.70;;;;;;;;;;5067669;28;20032;-69
2022/09/01 08:05:25;;;;;;;8.27;4.15;;;;;;;19.77;nan;100146.63;5064342;28;20044;-70
2022/09/01 08:07:52;;;;;;;12.75;4.55;;;;;;;19.81;nan;100178.91;5064406;28;20037;-68
2022/09/01 08:10:18;;;;;;;11.10;4.32;;;;;;;19.73;nan;100247.16;5061494;28;20020;-69
2022/09/01 08:12:43;;;;;;;7.38;4.65;;;;;;;19.69;nan;100181.25;5049112;28;20123;-69
2022/09/01 08:15:10;;;;;;;9.98;4.70;;;;;;;19.70;nan;100177.47;5063540;28;20411;-68
2022/09/01 08:17:37;;;;;;;13.30;4.35;;;;;;;19.70;nan;100177.47;5062617;28;20556;-69
2022/09/01 08:20:07;;;;;;;10.40;4.40;;;;;;;19.75;nan;100190.75;5065227;28;20028;-67
2022/09/01 08:22:32;;;;;;;10.77;4.35;;;;;;;19.72;nan;100207.38;5065786;28;20032;-68
2022/09/01 08:24:58;;;;;;;6.90;4.20;;;;;;;;;;5059880;28;20025;-68
2022/09/01 08:27:27;;;;;;;10.17;4.50;;;;;;;19.69;nan;100205.28;5067380;28;20107;-69
2022/09/01 08:29:53;;;;;;;11.00;4.82;;;;;;;19.63;nan;100195.72;5058356;28;20277;-69
2022/09/01 08:32:19;;;;;;;6.03;3.63;;;;;;;19.68;nan;100195.66;5064893;28;20114;-68
2022/09/01 08:34:45;;;;;;;9.25;3.92;;;;;;;19.66;nan;100193.28;5064164;28;20124;-68
2022/09/01 08:37:10;;;;;;;7.60;3.88;;;;;;;19.57;nan;100199.56;5067511;28;20613;-68
2022/09/01 08:39:36;;;;;;;9.40;3.50;;;;;;;19.46;nan;100201.56;5044835;28;20534;-68
2022/09/01 08:42:35;;;;;;;7.50;3.78;;;;;;;19.46;nan;100206.91;5066664;28;20024;-66
2022/09/01 08:45:12;;;;;;;6.75;3.53;;;;;;;19.44;nan;100193.06;5062523;28;20017;-67
2022/09/01 08:47:37;;;;;;;12.00;4.10;;;;;;;19.37;nan;100187.28;5058534;28;20016;-67
2022/09/01 08:50:04;;;;;;;8.30;5.13;;;;;;;19.42;nan;100197.88;5061113;28;20488;-68
2022/09/01 08:52:37;;;;;;;7.93;4.03;;;;;;;19.47;nan;100211.19;5046462;28;20025;-67
2022/09/01 08:55:26;;;;;;;17.42;7.40;;;;;;;19.51;nan;100217.53;5047535;28;20567;-68
2022/09/01 08:57:54;;;;;;;10.73;5.35;;;;;;;19.50;nan;100216.72;5062723;28;20069;-68
2022/09/01 09:00:23;;;;;;;7.10;4.40;;;;;;;;;;5062005;28;20028;-69
2022/09/01 09:03:04;;;;;;;6.60;4.13;;;;;;;19.37;nan;100214.78;5066602;28;20280;-69
2022/09/01 09:05:52;;;;;;;6.55;3.85;;;;;;;19.27;nan;100212.25;5061812;28;20023;-69
2022/09/01 09:08:38;;;;;;;11.32;4.20;;;;;;;19.07;nan;100223.97;5060773;28;20070;-68
2022/09/01 09:11:13;;;;;;;11.45;4.00;;;;;;;19.11;nan;100219.66;5062162;28;20020;-68
2022/09/01 09:14:01;;;;;;;6.97;3.90;;;;;;;19.09;nan;100230.63;5064951;28;20025;-69
2022/09/01 09:16:36;;;;;;;13.48;4.20;;;;;;;18.86;nan;100261.56;5063496;28;20115;-69
2022/09/01 09:19:21;;;;;;;9.15;4.10;;;;;;;18.70;nan;100295.59;5061362;28;20521;-71
2022/09/01 09:21:49;;;;;;;10.02;3.72;;;;;;;18.61;nan;100217.25;5064725;28;20025;-70
2022/09/01 09:24:49;;;;;;;5.75;3.75;;;;;;;18.83;nan;100253.34;5061400;28;20107;-70
2022/09/01 09:27:21;;;;;;;10.25;4.07;;;;;;;18.68;nan;100233.72;5063272;28;20469;-71
2022/09/01 09:29:52;;;;;;;7.55;4.10;;;;;;;;;;5067625;28;20020;-71
2022/09/01 09:32:18;;;;;;;8.90;4.63;;;;;;;18.22;nan;100233.34;5068473;28;20491;-70
2022/09/01 09:34:43;;;;;;;8.02;4.03;;;;;;;18.01;nan;100246.84;5070071;28;20379;-70
2022/09/01 09:37:22;;;;;;;11.43;4.85;;;;;;;17.90;nan;100266.63;5065981;28;20025;-69
2022/09/01 09:40:08;;;;;;;8.07;4.10;;;;;;;17.83;nan;100285.59;5065583;28;20054;-70
2022/09/01 09:42:35;;;;;;;10.10;3.80;;;;;;;17.68;nan;100283.00;5053819;28;20375;-69
2022/09/01 09:45:00;;;;;;;8.93;3.70;;;;;;;;;;5065710;28;20067;-70
2022/09/01 09:47:41;;;;;;;6.55;3.17;;;;;;;17.10;nan;100269.41;5050458;28;20052;-75
2022/09/01 09:50:13;;;;;;;5.38;3.08;;;;;;;17.05;nan;100250.78;5069034;28;20470;-74
2022/09/01 09:52:38;;;;;;;3.88;2.90;;;;;;;;;;5066209;28;20099;-74
2022/09/01 09:55:17;;;;;;;6.65;3.20;;;;;;;17.04;nan;100318.38;5063787;28;20115;-73
2022/09/01 09:57:43;;;;;;;6.00;2.88;;;;;;;16.78;nan;100257.22;5063264;28;20052;-74
2022/09/01 10:00:33;;;;;;;6.88;3.28;;;;;;;16.73;nan;100295.25;5049303;28;20090;-74
2022/09/01 10:03:07;;;;;;;;;;;;;;;16.57;nan;100275.09;5066775;28;20039;-75
2022/09/01 10:05:43;;;;;;;6.10;3.25;;;;;;;;;;5063307;28;20616;-75
2022/09/01 10:08:14;;;;;;;10.27;3.65;;;;;;;;;;5064483;28;20026;-71
2022/09/01 10:10:40;;;;;;;6.45;3.60;;;;;;;;;;5066138;28;20074;-73
2022/09/01 10:13:10;;;;;;;13.77;3.75;;;;;;;;;;5066452;28;20028;-75
2022/09/01 10:15:36;;;;;;;8.23;3.80;;;;;;;;;;5063802;28;20057;-74
2022/09/01 10:18:06;;;;;;;9.27;3.83;;;;;;;;;;5069070;28;20035;-73
2022/09/01 10:20:33;;;;;;;10.00;4.38;;;;;;;;;;5050859;28;20066;-73
2022/09/01 10:23:00;;;;;;;13.55;4.57;;;;;;;;;;5063917;28;20074;-74
2022/09/01 10:25:28;;;;;;;11.85;4.13;;;;;;;;;;5052133;28;20381;-71
2022/09/01 10:28:00;;;;;;;11.77;4.50;;;;;;;;;;5052976;28;20047;-71
2022/09/01 10:30:26;;;;;;;9.18;4.57;;;;;;;;;;5049055;28;20025;-71
2022/09/01 10:32:52;;;;;;;11.50;4.63;;;;;;;;;;5068157;28;20020;-70
2022/09/01 10:35:22;;;;;;;8.97;4.87;;;;;;;;;;5070323;28;20100;-71
2022/09/01 10:37:48;;;;;;;9.00;5.07;;;;;;;;;;5052876;28;20016;-71
2022/09/01 10:40:14;;;;;;;16.17;5.78;;;;;;;;;;5069677;28;20055;-71
2022/09/01 10:42:44;;;;;;;11.80;5.45;;;;;;;;;;5051692;28;20462;-71
2022/09/01 10:45:36;;;;;;;12.10;5.60;;;;;;;;;;5049597;28;20028;-71
2022/09/01 10:48:20;;;;;;;13.52;5.47;;;;;;;;;;5065483;28;20033;-71
2022/09/01 10:51:05;;;;;;;18.90;6.25;;;;;;;;;;5068327;28;20071;-71
2022/09/01 10:53:34;;;;;;;13.43;5.93;;;;;;;;;;5032439;28;20038;-71
2022/09/01 10:56:08;;;;;;;16.15;7.30;;;;;;;;;;5049413;28;20059;-71
2022/09/01 10:58:52;;;;;;;10.77;6.25;;;;;;;;;;5065400;28;20082;-70
2022/09/01 11:01:40;;;;;;;15.63;7.32;;;;;;;16.83;nan;100221.88;5064977;28;20032;-70
2022/09/01 11:04:25;;;;;;;13.00;7.43;;;;;;;;;;5052946;28;20413;-71
2022/09/01 11:06:53;;;;;;;14.88;6.60;;;;;;;;;;5018361;28;20036;-71
2022/09/01 11:09:18;;;;;;;14.98;6.65;;;;;;;;;;5070543;28;20413;-70
2022/09/01 11:12:02;;;;;;;16.77;7.80;;;;;;;;;;5069194;28;20082;-70
2022/09/01 11:14:34;;;;;;;14.63;6.38;;;;;;;;;;5067149;28;20398;-71
2022/09/01 11:17:18;;;;;;;17.08;6.25;;;;;;;;;;5068890;28;20436;-70
2022/09/01 11:19:43;;;;;;;12.93;6.45;;;;;;;;;;5066233;28;20482;-68
2022/09/01 11:22:12;;;;;;;9.70;6.85;;;;;;;;;;5050502;28;20032;-68
2022/09/01 11:24:37;;;;;;;11.07;6.20;;;;;;;;;;5069074;28;20020;-68
2022/09/01 11:27:02;;;;;;;12.10;6.30;;;;;;;;;;5068385;28;20020;-68
2022/09/01 11:29:46;;;;;;;12.15;6.32;;;;;;;;;;5069886;28;20028;-69
2022/09/01 11:32:12;;;;;;;15.55;6.63;;;;;;;;;;5050050;28;20025;-68
2022/09/01 11:34:41;;;;;;;11.07;6.90;;;;;;;;;;5047293;28;20027;-70
2022/09/01 11:37:13;;;;;;;;;;;;;;;17.70;nan;100234.78;5067373;28;20054;-69
2022/09/01 11:39:40;;;;;;;10.52;6.30;;;;;;;;;;5067672;28;19935;-69
2022/09/01 11:42:24;;;;;;;14.07;6.60;;;;;;;17.81;nan;100220.34;5067134;28;20021;-69
2022/09/01 11:44:52;;;;;;;13.00;6.07;;;;;;;;;;5063758;28;20024;-68
2022/09/01 11:47:19;;;;;;;9.98;6.30;;;;;;;;;;5069307;28;20058;-68
2022/09/01 11:49:47;;;;;;;11.95;6.80;;;;;;;;;;5066821;28;20024;-68
2022/09/01 11:52:17;;;;;;;9.88;6.32;;;;;;;18.14;nan;100224.09;5066735;28;20020;-70
2022/09/01 11:54:45;;;;;;;12.07;6.28;;;;;;;18.17;nan;100236.06;5066445;28;20017;-70
2022/09/01 11:57:22;;;;;;;11.55;6.15;;;;;;;18.21;nan;100200.56;5067192;28;20016;-70
2022/09/01 11:59:51;;;;;;;14.00;7.05;;;;;;;18.30;nan;100227.44;5065327;28;20375;-70
2022/09/01 12:02:30;;;;;;;9.90;5.85;;;;;;;18.40;nan;100229.19;5069100;28;20050;-70
2022/09/01 12:04:56;;;;;;;14.95;6.05;;;;;;;18.47;nan;100211.78;5049996;28;20484;-69
2022/09/01 12:07:37;;;;;;;14.80;6.47;;;;;;;18.62;nan;100220.72;5069319;28;20025;-70
2022/09/01 12:10:12;;;;;;;10.73;6.68;;;;;;;18.75;nan;100182.72;5066543;28;20021;-67
2022/09/01 12:12:38;;;;;;;11.27;5.97;;;;;;;18.77;nan;100211.78;5068980;28;20543;-68
2022/09/01 12:15:09;;;;;;;10.55;6.22;;;;;;;;;;5067582;28;20052;-69
2022/09/01 12:17:35;;;;;;;13.68;5.60;;;;;;;19.11;nan;100217.00;5063417;28;20039;-69
2022/09/01 12:20:19;;;;;;;13.55;5.32;;;;;;;19.20;nan;100204.59;5060075;28;20025;-71
2022/09/01 12:22:44;;;;;;;10.57;5.60;;;;;;;19.22;nan;100221.09;5050349;28;20024;-72
2022/09/01 12:25:21;;;;;;;12.20;5.82;;;;;;;19.17;nan;100199.81;5062826;28;20162;-72
2022/09/01 12:27:47;;;;;;;13.02;5.65;;;;;;;;;;5063340;28;20048;-73
2022/09/01 12:30:12;;;;;;;7.60;5.25;;;;;;;19.35;nan;100208.94;5049877;28;20105;-72